Item Display Status Inductive CT Sensor

Mooring Depth: 20 m

 

Deployed Sensor

  • Serial Number: 4189
  • NDBC Property Number: 24503
  • Start Date: 11/5/2018 (13:33:04 Z)
  • End Date: Currently Active
Water Temperature [°C]     6 entries per hour
Showing data from 11/19/2019 (16:00:00 Z) to 11/18/2019 (00:00:01 Z)
Previous Next [ Day | 3-Days | 7-Days ]
First Last
Prev [ Day | 3-Days | 7-Days ] Next
First Last

Start Time:     :
End Time:     :     
Time (in GMT) :00 :50 :40 :30 :20 :10
Previous Next [ Day | 3-Days | 7-Days ]
First Last
Prev [ Day | 3-Days | 7-Days ] Next
First Last


123 => good data
MM => data is determined as missing
-- => data not received/configured
Back to Top Back to Top
11/19/2019 16:00 to 15:10 24.147 24.148 24.148 24.147 24.146 --
11/19/2019 15:00 to 14:10 24.144 24.144 24.142 24.145 24.147 24.145
11/19/2019 14:00 to 13:10 24.147 24.149 24.150 24.146 24.145 24.149
11/19/2019 13:00 to 12:10 24.150 24.149 24.147 24.153 24.153 24.155
11/19/2019 12:00 to 11:10 24.155 24.157 24.160 24.164 24.165 24.164
11/19/2019 11:00 to 10:10 24.166 24.169 24.168 24.166 24.172 24.177
11/19/2019 10:00 to 9:10 24.175 24.179 24.178 24.171 24.176 24.177
11/19/2019 09:00 to 8:10 24.178 24.173 24.177 24.183 24.185 24.185
11/19/2019 08:00 to 7:10 24.196 24.187 24.192 24.191 24.189 24.193
11/19/2019 07:00 to 6:10 24.187 24.193 24.188 24.186 24.190 24.189
11/19/2019 06:00 to 5:10 24.192 24.194 24.196 24.187 24.197 24.203
11/19/2019 05:00 to 4:10 24.215 24.224 24.221 24.224 24.228 24.229
11/19/2019 04:00 to 3:10 24.212 24.219 24.230 24.251 24.221 24.254
11/19/2019 03:00 to 2:10 24.246 24.220 24.243 24.214 24.251 24.244
11/19/2019 02:00 to 1:10 24.254 24.240 24.241 24.269 24.242 24.249
11/19/2019 01:00 to 0:10 24.261 24.276 24.226 24.242 24.202 24.279
11/19/2019 00:00 to 23:10 24.271 24.228 24.173 24.175 24.177 24.174
11/18/2019 23:00 to 22:10 24.173 24.170 24.169 24.166 24.170 24.167
11/18/2019 22:00 to 21:10 24.166 24.170 24.168 24.173 24.170 24.172
11/18/2019 21:00 to 20:10 24.166 24.170 24.172 24.173 24.167 24.169
11/18/2019 20:00 to 19:10 24.163 24.163 24.159 24.161 24.169 24.165
11/18/2019 19:00 to 18:10 24.164 24.160 24.158 24.159 24.160 24.160
11/18/2019 18:00 to 17:10 24.160 24.158 24.159 24.158 24.155 24.159
11/18/2019 17:00 to 16:10 24.159 24.156 24.164 24.156 24.158 --
11/18/2019 16:00 to 15:10 24.163 24.158 24.161 24.156 24.158 24.156
11/18/2019 15:00 to 14:10 24.155 24.155 24.154 -- 24.151 24.148
11/18/2019 14:00 to 13:10 24.151 24.151 24.149 24.147 24.152 24.145
11/18/2019 13:00 to 12:10 24.147 24.155 24.153 24.153 24.151 24.151
11/18/2019 12:00 to 11:10 24.154 24.156 24.154 24.149 24.160 24.168
11/18/2019 11:00 to 10:10 24.171 -- 24.173 24.179 24.181 24.179
11/18/2019 10:00 to 9:10 24.181 24.187 24.181 24.174 24.183 24.190
11/18/2019 09:00 to 8:10 24.182 24.194 24.189 24.183 24.188 24.187
11/18/2019 08:00 to 7:10 24.192 24.192 24.191 24.197 24.204 24.194
11/18/2019 07:00 to 6:10 24.207 24.210 24.212 24.188 24.212 24.215
11/18/2019 06:00 to 5:10 24.218 24.215 24.219 24.230 24.225 24.222
11/18/2019 05:00 to 4:10 24.228 24.215 24.201 24.227 24.244 24.220
11/18/2019 04:00 to 3:10 24.245 24.232 24.242 24.221 24.201 24.230
11/18/2019 03:00 to 2:10 24.228 24.180 24.240 24.220 24.182 24.185
11/18/2019 02:00 to 1:10 24.186 24.187 24.199 24.218 24.232 24.204
11/18/2019 01:00 to 0:10 24.199 24.194 24.197 24.209 24.203 24.200

 

 

 

Conductivity [S/m]     6 entries per hour
Showing data from 11/19/2019 (16:00:00 Z) to 11/18/2019 (00:00:01 Z)
Previous Next [ Day | 3-Days | 7-Days ]
First Last
Prev [ Day | 3-Days | 7-Days ] Next
First Last

Start Time:     :
End Time:     :     
Time (in GMT) :00 :50 :40 :30 :20 :10
Previous Next [ Day | 3-Days | 7-Days ]
First Last
Prev [ Day | 3-Days | 7-Days ] Next
First Last


123 => good data
MM => data is determined as missing
-- => data not received/configured
Back to Top Back to Top
11/19/2019 16:00 to 15:10 5.19282 5.19305 5.19295 5.19297 5.19287 5.19264
11/19/2019 15:00 to 14:10 5.19272 5.19264 5.19257 5.19280 5.19305 5.19287
11/19/2019 14:00 to 13:10 5.19287 5.19318 5.19328 5.19300 5.19292 5.19333
11/19/2019 13:00 to 12:10 5.19336 5.19331 5.19310 5.19354 5.19354 5.19384
11/19/2019 12:00 to 11:10 5.19387 5.19404 5.19445 5.19481 5.19496 5.19476
11/19/2019 11:00 to 10:10 5.19499 5.19535 5.19527 5.19496 5.19563 5.19614
11/19/2019 10:00 to 9:10 5.19593 5.19624 5.19637 5.19563 5.19614 5.19621
11/19/2019 09:00 to 8:10 5.19629 5.19580 5.19611 5.19670 5.19685 5.19700
11/19/2019 08:00 to 7:10 5.19815 5.19762 5.19772 5.19762 5.19744 5.19769
11/19/2019 07:00 to 6:10 5.19721 5.19779 5.19726 5.19708 5.19734 5.19729
11/19/2019 06:00 to 5:10 5.19751 5.19782 5.19813 5.19708 5.19815 5.19869
11/19/2019 05:00 to 4:10 5.20014 5.20106 5.20058 5.20086 5.20152 5.20165
11/19/2019 04:00 to 3:10 5.19999 5.20050 5.20165 5.20387 5.20068 5.20433
11/19/2019 03:00 to 2:10 5.20341 5.20114 5.20309 5.19961 5.20387 5.20313
11/19/2019 02:00 to 1:10 5.20418 5.20260 5.20272 5.20589 5.20306 5.20331
11/19/2019 01:00 to 0:10 5.20524 5.20645 5.20109 5.20272 5.19999 5.20650
11/19/2019 00:00 to 23:10 5.20461 5.20122 5.19542 5.19570 5.19593 5.19558
11/18/2019 23:00 to 22:10 5.19555 5.19514 5.19499 5.19481 5.19512 5.19486
11/18/2019 22:00 to 21:10 5.19473 5.19527 5.19504 5.19545 5.19517 5.19532
11/18/2019 21:00 to 20:10 5.19478 5.19522 5.19537 5.19547 5.19501 5.19504
11/18/2019 20:00 to 19:10 5.19440 5.19440 5.19392 5.19409 5.19476 5.19453
11/18/2019 19:00 to 18:10 5.19440 5.19397 5.19376 5.19387 5.19399 5.19160
11/18/2019 18:00 to 17:10 5.19394 5.19371 5.19381 5.19374 5.19353 5.19384
11/18/2019 17:00 to 16:10 5.19379 5.19348 5.19427 5.19348 5.19371 5.19336
11/18/2019 16:00 to 15:10 5.19435 5.19389 5.19422 5.19364 5.19397 5.19364
11/18/2019 15:00 to 14:10 5.19353 5.19351 5.19341 5.19303 5.19310 5.19269
11/18/2019 14:00 to 13:10 5.19308 5.19297 5.19275 5.19247 5.19300 5.19236
11/18/2019 13:00 to 12:10 5.19234 5.19333 5.19313 5.19323 5.19303 5.19287
11/18/2019 12:00 to 11:10 5.19323 5.19328 5.19325 5.19280 5.19384 5.19478
11/18/2019 11:00 to 10:10 5.19517 5.19535 5.19568 5.19611 5.19639 5.19616
11/18/2019 10:00 to 9:10 5.19649 5.19705 5.19647 5.19565 5.19670 5.19739
11/18/2019 09:00 to 8:10 5.19672 5.19774 5.19729 5.19654 5.19690 5.19695
11/18/2019 08:00 to 7:10 5.19749 5.19736 5.19754 5.19795 5.19874 5.19764
11/18/2019 07:00 to 6:10 5.19892 5.19963 5.19974 5.19723 5.19986 5.19981
11/18/2019 06:00 to 5:10 5.20027 5.19991 5.20035 5.20152 5.20081 5.20037
11/18/2019 05:00 to 4:10 5.20104 5.19961 5.19800 5.20086 5.20267 5.20014
11/18/2019 04:00 to 3:10 5.20272 5.20150 5.20242 5.20063 5.19797 5.20071
11/18/2019 03:00 to 2:10 5.20078 5.19558 5.20219 5.19991 5.19601 5.19703
11/18/2019 02:00 to 1:10 5.19634 5.19632 5.19739 5.19984 5.20228 5.19864
11/18/2019 01:00 to 0:10 5.19833 5.19728 5.19757 5.19935 5.19838 5.19790

 

 

 

Salinity [psu]     6 entries per hour
Showing data from 11/19/2019 (16:00:00 Z) to 11/18/2019 (00:00:01 Z)
Previous Next [ Day | 3-Days | 7-Days ]
First Last
Prev [ Day | 3-Days | 7-Days ] Next
First Last

Start Time:     :
End Time:     :     
Time (in GMT) :00 :50 :40 :30 :20 :10
Previous Next [ Day | 3-Days | 7-Days ]
First Last
Prev [ Day | 3-Days | 7-Days ] Next
First Last


123 => good data
MM => data is determined as missing
-- => data not received/configured
Back to Top Back to Top
11/19/2019 16:00 to 15:10 34.80 34.80 34.80 34.80 34.80 --
11/19/2019 15:00 to 14:10 34.80 34.80 34.80 34.80 34.80 34.80
11/19/2019 14:00 to 13:10 34.80 34.80 34.80 34.80 34.80 34.80
11/19/2019 13:00 to 12:10 34.80 34.80 34.80 34.80 34.80 34.80
11/19/2019 12:00 to 11:10 34.80 34.80 34.80 34.80 34.80 34.80
11/19/2019 11:00 to 10:10 34.80 34.80 34.80 34.80 34.80 34.80
11/19/2019 10:00 to 9:10 34.80 34.80 34.80 34.80 34.80 34.80
11/19/2019 09:00 to 8:10 34.80 34.80 34.80 34.80 34.80 34.80
11/19/2019 08:00 to 7:10 34.80 34.81 34.80 34.80 34.80 34.80
11/19/2019 07:00 to 6:10 34.80 34.80 34.80 34.80 34.80 34.80
11/19/2019 06:00 to 5:10 34.80 34.80 34.80 34.80 34.80 34.80
11/19/2019 05:00 to 4:10 34.80 34.80 34.80 34.80 34.80 34.80
11/19/2019 04:00 to 3:10 34.81 34.80 34.80 34.80 34.80 34.81
11/19/2019 03:00 to 2:10 34.81 34.81 34.81 34.80 34.80 34.80
11/19/2019 02:00 to 1:10 34.80 34.80 34.80 34.81 34.81 34.80
11/19/2019 01:00 to 0:10 34.81 34.80 34.80 34.80 34.81 34.80
11/19/2019 00:00 to 23:10 34.79 34.80 34.80 34.80 34.80 34.80
11/18/2019 23:00 to 22:10 34.80 34.80 34.80 34.80 34.80 34.80
11/18/2019 22:00 to 21:10 34.80 34.80 34.80 34.80 34.80 34.80
11/18/2019 21:00 to 20:10 34.80 34.80 34.80 34.80 34.80 34.80
11/18/2019 20:00 to 19:10 34.80 34.80 34.80 34.80 34.80 34.80
11/18/2019 19:00 to 18:10 34.80 34.80 34.80 34.80 34.80 34.78
11/18/2019 18:00 to 17:10 34.80 34.80 34.80 34.80 34.80 34.80
11/18/2019 17:00 to 16:10 34.80 34.80 34.80 34.80 34.80 --
11/18/2019 16:00 to 15:10 34.80 34.80 34.80 34.80 34.80 34.80
11/18/2019 15:00 to 14:10 34.80 34.80 34.80 34.80 34.80 34.80
11/18/2019 14:00 to 13:10 34.80 34.80 34.80 34.80 34.80 34.80
11/18/2019 13:00 to 12:10 34.80 34.80 34.80 34.80 34.80 34.80
11/18/2019 12:00 to 11:10 34.80 34.80 34.80 34.80 34.80 34.80
11/18/2019 11:00 to 10:10 34.80 34.80 34.80 34.80 34.80 34.80
11/18/2019 10:00 to 9:10 34.80 34.80 34.80 34.80 34.80 34.80
11/18/2019 09:00 to 8:10 34.80 34.80 34.80 34.80 34.80 34.80
11/18/2019 08:00 to 7:10 34.80 34.80 34.80 34.80 34.80 34.80
11/18/2019 07:00 to 6:10 34.80 34.80 34.80 34.80 34.80 34.80
11/18/2019 06:00 to 5:10 34.80 34.80 34.80 34.80 34.80 34.80
11/18/2019 05:00 to 4:10 34.80 34.80 34.80 34.80 34.80 34.80
11/18/2019 04:00 to 3:10 34.80 34.80 34.80 34.80 34.80 34.80
11/18/2019 03:00 to 2:10 34.80 34.80 34.80 34.80 34.80 34.80
11/18/2019 02:00 to 1:10 34.80 34.80 34.80 34.80 34.81 34.80
11/18/2019 01:00 to 0:10 34.80 34.80 34.80 34.80 34.80 34.80